createdAt,value
2018-11-20T00:00:06.821Z,5.20
2018-11-20T00:02:53.444Z,5.10
2018-11-20T00:05:53.932Z,5.10
2018-11-20T00:08:41.448Z,5.30
2018-11-20T00:11:21.489Z,5.20
2018-11-20T00:14:01.539Z,5.20
2018-11-20T00:17:07.794Z,5.40
2018-11-20T00:20:06.912Z,5.40
2018-11-20T00:22:58.067Z,5.30
2018-11-20T00:25:47.571Z,5.30
2018-11-20T00:28:34.674Z,5.40
2018-11-20T00:31:13.886Z,5.20
2018-11-20T00:34:08.452Z,5.10
2018-11-20T00:36:55.515Z,5.00
2018-11-20T00:39:53.077Z,5.10
2018-11-20T00:42:32.592Z,5.20
2018-11-20T00:45:19.949Z,5.20
2018-11-20T00:48:17.519Z,5.30
2018-11-20T00:51:04.240Z,5.30
2018-11-20T00:53:59.413Z,5.20
2018-11-20T00:57:11.557Z,5.20
2018-11-20T01:00:09.902Z,5.10
2018-11-20T01:03:37.291Z,5.10
2018-11-20T01:06:23.450Z,5.10
2018-11-20T01:09:10.898Z,5.20
2018-11-20T01:12:07.570Z,5.20
2018-11-20T01:14:58.134Z,5.30
2018-11-20T01:17:44.436Z,5.20
2018-11-20T01:20:20.347Z,5.10
2018-11-20T01:23:11.566Z,5.10
2018-11-20T01:25:59.769Z,5.30
2018-11-20T01:28:50.241Z,5.30
2018-11-20T01:31:50.028Z,5.30
2018-11-20T01:34:37.373Z,5.10
2018-11-20T01:37:14.679Z,5.20
2018-11-20T01:40:00.852Z,5.50
2018-11-20T01:42:51.323Z,5.20
2018-11-20T01:45:41.480Z,5.10
2018-11-20T01:48:28.407Z,5.10
2018-11-20T01:51:25.182Z,5.10
2018-11-20T01:54:12.139Z,5.20
2018-11-20T01:56:58.256Z,5.30
2018-11-20T01:59:53.759Z,5.20
2018-11-20T02:02:39.781Z,5.20
2018-11-20T02:05:30.679Z,5.10
2018-11-20T02:08:21.106Z,5.20
2018-11-20T02:11:07.118Z,5.10
2018-11-20T02:14:05.309Z,5.10
2018-11-20T02:16:59.709Z,4.90
2018-11-20T02:19:47.217Z,5.00
2018-11-20T02:22:37.811Z,5.00
2018-11-20T02:25:41.011Z,5.10
2018-11-20T02:28:27.381Z,5.10
2018-11-20T02:31:18.206Z,5.20
2018-11-20T02:33:55.256Z,5.20
2018-11-20T02:36:41.591Z,5.30
2018-11-20T02:39:27.566Z,5.20
2018-11-20T02:42:16.051Z,5.10
2018-11-20T02:45:12.577Z,5.00
2018-11-20T02:47:59.343Z,5.10
2018-11-20T02:50:46.399Z,5.30
2018-11-20T02:53:44.274Z,5.30
2018-11-20T02:56:32.776Z,5.30
2018-11-20T02:59:35.384Z,5.30
2018-11-20T03:02:24.819Z,5.20
2018-11-20T03:05:10.862Z,5.10
2018-11-20T03:07:58.186Z,5.10
2018-11-20T03:10:51.815Z,5.20
2018-11-20T03:13:47.860Z,5.20
2018-11-20T03:16:34.150Z,5.10
2018-11-20T03:19:20.979Z,5.00
2018-11-20T03:22:17.871Z,5.00
2018-11-20T03:25:04.120Z,5.00
2018-11-20T03:27:43.034Z,4.80
2018-11-20T03:31:20.935Z,4.80
2018-11-20T03:34:10.476Z,4.70
2018-11-20T03:37:01.237Z,4.80
2018-11-20T03:39:49.055Z,4.90
2018-11-20T03:42:25.108Z,4.90
2018-11-20T03:45:10.944Z,4.90
2018-11-20T03:48:01.567Z,4.80
2018-11-20T03:50:58.509Z,4.90
2018-11-20T03:53:38.127Z,4.80
2018-11-20T03:56:24.446Z,4.70
2018-11-20T03:59:24.483Z,4.70
2018-11-20T04:02:12.578Z,4.60
2018-11-20T04:05:00.350Z,4.30
2018-11-20T04:07:48.612Z,4.50
2018-11-20T04:10:30.717Z,4.50
2018-11-20T04:13:17.611Z,4.20
2018-11-20T04:16:23.909Z,4.20
2018-11-20T04:19:03.928Z,4.30
2018-11-20T04:21:51.669Z,4.50
2018-11-20T04:24:37.728Z,4.50
2018-11-20T04:27:35.509Z,4.50
2018-11-20T04:30:49.936Z,4.50
2018-11-20T04:33:54.275Z,4.60
2018-11-20T04:36:52.443Z,4.70
2018-11-20T04:39:40.840Z,4.80
2018-11-20T04:42:40.463Z,4.80
2018-11-20T04:45:28.643Z,4.80
2018-11-20T04:48:10.162Z,5.00
2018-11-20T04:51:12.737Z,4.70
2018-11-20T04:54:01.827Z,4.70
2018-11-20T04:56:53.510Z,4.70
2018-11-20T04:59:39.754Z,4.80
2018-11-20T05:02:26.878Z,4.80
2018-11-20T05:05:20.824Z,4.90
2018-11-20T05:08:14.343Z,4.70
2018-11-20T05:11:14.213Z,4.80
2018-11-20T05:14:01.897Z,5.00
2018-11-20T05:16:41.298Z,4.90
2018-11-20T05:19:23.642Z,5.10
2018-11-20T05:22:17.667Z,5.00
2018-11-20T05:25:09.001Z,4.80
2018-11-20T05:28:12.936Z,4.70
2018-11-20T05:30:59.705Z,4.80
2018-11-20T05:33:54.378Z,4.80
2018-11-20T05:36:42.314Z,4.90
2018-11-20T05:39:29.488Z,4.90
2018-11-20T05:42:17.111Z,5.10
2018-11-20T05:45:03.733Z,5.10
2018-11-20T05:48:03.344Z,5.10
2018-11-20T05:50:50.350Z,5.20
2018-11-20T05:53:53.461Z,5.00
2018-11-20T05:56:47.465Z,5.00
2018-11-20T05:59:32.110Z,5.10
2018-11-20T06:02:18.379Z,5.20
2018-11-20T06:05:11.447Z,5.00
2018-11-20T06:08:10.991Z,5.00
2018-11-20T06:11:10.563Z,5.10
2018-11-20T06:13:57.284Z,5.00
2018-11-20T06:17:04.458Z,5.00
2018-11-20T06:19:59.563Z,5.00
2018-11-20T06:23:06.551Z,5.10
2018-11-20T06:26:13.853Z,5.20
2018-11-20T06:29:14.224Z,5.30
2018-11-20T06:32:20.967Z,5.20
2018-11-20T06:35:27.836Z,5.20
2018-11-20T06:38:35.816Z,5.00
2018-11-20T06:41:43.118Z,5.10
2018-11-20T06:44:50.441Z,5.20
2018-11-20T06:47:57.406Z,5.30
2018-11-20T06:51:07.586Z,5.10
2018-11-20T06:54:14.669Z,5.10
2018-11-20T06:57:02.400Z,5.10
2018-11-20T07:00:09.226Z,5.10
2018-11-20T07:03:16.050Z,5.00
2018-11-20T07:06:23.203Z,5.10
2018-11-20T07:09:30.084Z,5.30
2018-11-20T07:12:37.194Z,5.10
2018-11-20T07:15:44.270Z,5.20
2018-11-20T07:18:50.937Z,5.30
2018-11-20T07:21:58.123Z,5.30
2018-11-20T07:25:05.377Z,5.40
2018-11-20T07:28:12.527Z,5.40
2018-11-20T07:31:19.908Z,5.20
2018-11-20T07:34:26.907Z,5.40
2018-11-20T07:37:36.590Z,5.30
2018-11-20T07:40:44.334Z,5.40
2018-11-20T07:43:51.357Z,5.30
2018-11-20T07:46:58.000Z,5.50
2018-11-20T07:50:04.831Z,5.40
2018-11-20T07:53:12.601Z,5.40
2018-11-20T07:56:19.983Z,5.50
2018-11-20T07:59:26.778Z,5.30
2018-11-20T08:02:34.100Z,5.30
2018-11-20T08:05:21.536Z,5.50
2018-11-20T08:08:05.480Z,5.40
2018-11-20T08:11:12.698Z,5.40
2018-11-20T08:14:19.798Z,5.40
2018-11-20T08:20:18.223Z,5.40
2018-11-20T08:23:25.295Z,5.60
2018-11-20T08:26:32.238Z,5.60
2018-11-20T08:29:39.146Z,5.70
2018-11-20T08:32:27.461Z,5.60
2018-11-20T08:35:15.205Z,5.60
2018-11-20T08:38:03.070Z,5.50
2018-11-20T08:41:09.958Z,5.60
2018-11-20T08:44:16.804Z,5.80
2018-11-20T08:47:24.061Z,5.80
2018-11-20T08:50:31.119Z,5.70
2018-11-20T08:53:37.953Z,5.60
2018-11-20T08:56:44.869Z,5.50
2018-11-20T08:59:51.707Z,5.70
2018-11-20T09:02:58.600Z,5.60
2018-11-20T09:06:05.365Z,5.70
2018-11-20T09:09:12.195Z,6.00
2018-11-20T09:12:19.365Z,5.80
2018-11-20T09:15:26.398Z,5.80
2018-11-20T09:18:14.155Z,5.70
2018-11-20T09:21:21.184Z,5.80
2018-11-20T09:24:27.944Z,6.00
2018-11-20T09:27:35.280Z,6.20
2018-11-20T09:30:42.118Z,6.30
2018-11-20T09:33:48.931Z,6.40
2018-11-20T09:37:02.297Z,6.30
2018-11-20T09:39:55.104Z,6.20
2018-11-20T09:43:02.332Z,6.10
2018-11-20T09:46:11.901Z,6.20
2018-11-20T09:49:18.775Z,6.10
2018-11-20T09:52:25.929Z,6.30
2018-11-20T09:55:32.747Z,6.20
2018-11-20T09:58:39.725Z,6.30
2018-11-20T10:01:48.906Z,6.70
2018-11-20T10:04:56.735Z,6.70
2018-11-20T10:08:03.900Z,6.50
2018-11-20T10:11:11.147Z,6.60
2018-11-20T10:14:00.540Z,6.50
2018-11-20T10:20:06.868Z,6.60
2018-11-20T10:23:20.148Z,6.50
2018-11-20T10:26:27.301Z,6.40
2018-11-20T10:29:14.723Z,6.20
2018-11-20T10:32:13.524Z,6.20
2018-11-20T10:35:20.656Z,6.20
2018-11-20T10:38:27.468Z,6.50
2018-11-20T10:41:34.828Z,6.60
2018-11-20T10:44:41.666Z,6.90
2018-11-20T10:47:49.359Z,6.70
2018-11-20T10:50:56.468Z,6.70
2018-11-20T10:53:54.747Z,7.00
2018-11-20T10:57:01.570Z,6.90
2018-11-20T11:00:08.415Z,6.80
2018-11-20T11:03:15.504Z,6.80
2018-11-20T11:06:22.706Z,6.80
2018-11-20T11:09:30.321Z,7.00
2018-11-20T11:15:27.205Z,7.10
2018-11-20T11:18:34.425Z,6.80
2018-11-20T11:21:41.361Z,6.80
2018-11-20T11:24:48.526Z,6.90
2018-11-20T11:27:55.615Z,7.10
2018-11-20T11:31:02.468Z,7.00
2018-11-20T11:34:11.879Z,7.10
2018-11-20T11:37:00.294Z,7.20
2018-11-20T11:39:46.097Z,7.10
2018-11-20T11:42:53.241Z,7.10
2018-11-20T11:46:00.146Z,7.20
2018-11-20T11:49:06.983Z,7.10
2018-11-20T11:52:13.772Z,7.10
2018-11-20T11:55:01.789Z,7.20
2018-11-20T11:58:09.366Z,7.40
2018-11-20T12:01:16.524Z,7.30
2018-11-20T12:04:26.363Z,7.20
2018-11-20T12:07:33.721Z,7.00
2018-11-20T12:10:40.830Z,7.10
2018-11-20T12:13:48.201Z,7.20
2018-11-20T12:17:02.741Z,7.30
2018-11-20T12:19:50.169Z,7.30
2018-11-20T12:22:39.556Z,7.10
2018-11-20T12:25:29.704Z,7.10
2018-11-20T12:28:16.801Z,7.30
2018-11-20T12:31:03.405Z,7.40
2018-11-20T12:33:44.858Z,7.40
2018-11-20T12:36:38.085Z,7.50
2018-11-20T12:39:27.796Z,7.60
2018-11-20T12:42:15.543Z,7.40
2018-11-20T12:45:13.570Z,7.20
2018-11-20T12:47:58.726Z,7.40
2018-11-20T12:50:53.984Z,7.30
2018-11-20T12:53:46.990Z,7.50
2018-11-20T12:56:33.953Z,7.30
2018-11-20T12:59:19.674Z,7.20
2018-11-20T13:02:16.524Z,7.20
2018-11-20T13:05:03.554Z,7.40
2018-11-20T13:08:09.232Z,7.40
2018-11-20T13:11:03.186Z,7.40
2018-11-20T13:13:50.253Z,7.40
2018-11-20T13:16:41.782Z,7.40
2018-11-20T13:19:33.332Z,7.40
2018-11-20T13:22:17.806Z,7.00
2018-11-20T13:25:04.261Z,6.80
2018-11-20T13:27:58.821Z,6.70
2018-11-20T13:30:43.802Z,6.90
2018-11-20T13:33:25.806Z,7.20
2018-11-20T13:36:12.393Z,7.00
2018-11-20T13:39:00.627Z,6.90
2018-11-20T13:41:47.566Z,6.90
2018-11-20T13:44:35.167Z,7.00
2018-11-20T13:47:35.892Z,7.30
2018-11-20T13:50:22.787Z,7.20
2018-11-20T13:53:09.390Z,7.00
2018-11-20T13:56:03.058Z,7.10
2018-11-20T13:58:49.525Z,7.30
2018-11-20T14:01:36.084Z,7.40
2018-11-20T14:04:26.043Z,7.20
2018-11-20T14:07:17.653Z,7.00
2018-11-20T14:10:09.219Z,6.90
2018-11-20T14:12:55.856Z,6.80
2018-11-20T14:15:46.884Z,6.90
2018-11-20T14:18:34.257Z,7.00
2018-11-20T14:21:20.289Z,7.00
2018-11-20T14:24:10.587Z,7.00
2018-11-20T14:26:59.952Z,6.80
2018-11-20T14:30:05.847Z,6.80
2018-11-20T14:32:53.312Z,6.50
2018-11-20T14:35:39.848Z,6.60
2018-11-20T14:38:36.726Z,6.60
2018-11-20T14:41:33.200Z,6.50
2018-11-20T14:44:26.105Z,6.60
2018-11-20T14:47:12.508Z,6.70
2018-11-20T14:49:59.673Z,6.60
2018-11-20T14:52:46.039Z,6.50
2018-11-20T14:55:39.871Z,6.40
2018-11-20T14:58:39.391Z,6.50
2018-11-20T15:01:38.679Z,6.70
2018-11-20T15:04:22.800Z,6.70
2018-11-20T15:07:28.839Z,6.50
2018-11-20T15:10:28.939Z,6.60
2018-11-20T15:13:22.742Z,6.50
2018-11-20T15:16:12.226Z,6.60
2018-11-20T15:19:08.826Z,6.40
2018-11-20T15:22:05.761Z,6.30
2018-11-20T15:24:40.599Z,6.30
2018-11-20T15:27:28.050Z,6.20
2018-11-20T15:30:31.277Z,6.20
2018-11-20T15:33:17.688Z,6.30
2018-11-20T15:36:03.983Z,6.30
2018-11-20T15:38:54.506Z,6.40
2018-11-20T15:41:34.275Z,6.60
2018-11-20T15:44:27.672Z,6.50
2018-11-20T15:47:14.452Z,6.30
2018-11-20T15:50:04.600Z,6.20
2018-11-20T15:53:10.387Z,6.00
2018-11-20T15:55:51.659Z,6.00
2018-11-20T15:58:37.284Z,6.00
2018-11-20T16:01:40.742Z,6.00
2018-11-20T16:04:33.668Z,6.10
2018-11-20T16:07:18.756Z,6.30
2018-11-20T16:10:08.953Z,6.60
2018-11-20T16:12:59.222Z,6.50
2018-11-20T16:16:01.696Z,6.30
2018-11-20T16:18:40.144Z,6.00
2018-11-20T16:21:28.372Z,6.20
2018-11-20T16:24:18.922Z,6.20
2018-11-20T16:27:10.185Z,6.20
2018-11-20T16:30:00.937Z,5.90
2018-11-20T16:32:48.632Z,5.80
2018-11-20T16:35:54.353Z,5.80
2018-11-20T16:38:41.113Z,5.90
2018-11-20T16:41:21.318Z,5.80
2018-11-20T16:44:10.271Z,6.00
2018-11-20T16:47:06.972Z,6.10
2018-11-20T16:50:12.835Z,6.00
2018-11-20T16:52:52.803Z,5.90
2018-11-20T16:55:50.142Z,5.90
2018-11-20T16:58:44.120Z,5.90
2018-11-20T17:01:43.395Z,5.90
2018-11-20T17:04:37.777Z,5.90
2018-11-20T17:07:43.374Z,5.80
2018-11-20T17:10:30.373Z,5.80
2018-11-20T17:13:27.501Z,5.70
2018-11-20T17:16:25.157Z,5.70
2018-11-20T17:19:21.894Z,5.70
2018-11-20T17:22:27.377Z,5.80
2018-11-20T17:25:13.656Z,5.90
2018-11-20T17:28:07.382Z,6.00
2018-11-20T17:31:00.834Z,6.10
2018-11-20T17:33:47.034Z,6.00
2018-11-20T17:36:40.997Z,6.10
2018-11-20T17:39:21.930Z,6.00
2018-11-20T17:42:12.525Z,5.80
2018-11-20T17:45:13.118Z,5.80
2018-11-20T17:48:03.917Z,5.90
2018-11-20T17:50:51.929Z,5.90
2018-11-20T17:53:38.646Z,6.10
2018-11-20T17:56:29.571Z,5.90
2018-11-20T17:59:23.370Z,6.00
2018-11-20T18:02:28.882Z,6.10
2018-11-20T18:05:15.614Z,5.90
2018-11-20T18:08:01.339Z,5.80
2018-11-20T18:10:52.480Z,5.90
2018-11-20T18:13:46.055Z,5.70
2018-11-20T18:16:45.857Z,5.80
2018-11-20T18:19:22.381Z,5.80
2018-11-20T18:22:09.098Z,5.80
2018-11-20T18:25:03.632Z,5.70
2018-11-20T18:27:54.246Z,5.70
2018-11-20T18:30:40.751Z,5.60
2018-11-20T18:33:37.447Z,5.50
2018-11-20T18:36:24.174Z,5.60
2018-11-20T18:39:21.122Z,5.60
2018-11-20T18:42:12.199Z,5.70
2018-11-20T18:44:59.867Z,5.70
2018-11-20T18:48:02.571Z,5.80
2018-11-20T18:50:44.523Z,6.00
2018-11-20T18:53:26.750Z,5.90
2018-11-20T18:56:13.430Z,5.80
2018-11-20T18:58:51.200Z,5.70
2018-11-20T19:01:28.185Z,5.60
2018-11-20T19:04:25.108Z,5.80
2018-11-20T19:07:11.855Z,5.80
2018-11-20T19:10:11.673Z,5.70
2018-11-20T19:12:58.242Z,5.70
2018-11-20T19:15:49.358Z,5.60
2018-11-20T19:18:35.539Z,5.70
2018-11-20T19:21:15.265Z,5.90
2018-11-20T19:24:05.270Z,5.80
2018-11-20T19:27:11.562Z,5.70
2018-11-20T19:29:58.277Z,5.90
2018-11-20T19:32:51.296Z,5.80
2018-11-20T19:35:49.388Z,5.80
2018-11-20T19:38:35.817Z,5.90
2018-11-20T19:41:39.108Z,6.10
2018-11-20T19:44:33.031Z,6.00
2018-11-20T19:47:21.024Z,6.10
2018-11-20T19:50:06.837Z,6.00
2018-11-20T19:53:04.077Z,5.50
2018-11-20T19:55:58.183Z,5.40
2018-11-20T19:58:52.775Z,5.30
2018-11-20T20:01:35.823Z,5.20
2018-11-20T20:04:21.991Z,5.10
2018-11-20T20:07:21.871Z,5.20
2018-11-20T20:10:16.253Z,5.20
2018-11-20T20:12:54.166Z,5.00
2018-11-20T20:15:59.909Z,4.90
2018-11-20T20:18:56.954Z,4.90
2018-11-20T20:21:44.706Z,4.90
2018-11-20T20:24:32.140Z,4.90
2018-11-20T20:27:18.491Z,4.80
2018-11-20T20:30:05.984Z,4.80
2018-11-20T20:32:53.166Z,4.80
2018-11-20T20:35:53.899Z,4.80
2018-11-20T20:38:40.580Z,4.80
2018-11-20T20:41:39.952Z,4.80
2018-11-20T20:44:25.902Z,4.90
2018-11-20T20:47:14.848Z,4.90
2018-11-20T20:50:20.696Z,5.00
2018-11-20T20:53:07.265Z,5.00
2018-11-20T20:56:13.191Z,4.80
2018-11-20T20:59:09.918Z,4.90
2018-11-20T21:01:53.747Z,5.00
2018-11-20T21:04:29.945Z,5.00
2018-11-20T21:07:20.664Z,5.00
2018-11-20T21:10:02.476Z,4.80
2018-11-20T21:12:49.432Z,4.90
2018-11-20T21:15:55.651Z,5.00
2018-11-20T21:18:42.194Z,5.10
2018-11-20T21:21:28.464Z,5.20
2018-11-20T21:24:34.636Z,5.40
2018-11-20T21:27:19.862Z,5.30
2018-11-20T21:30:05.749Z,5.20
2018-11-20T21:32:59.553Z,5.40
2018-11-20T21:35:46.917Z,5.40
2018-11-20T21:38:32.185Z,5.20
2018-11-20T21:41:18.508Z,5.20
2018-11-20T21:44:12.839Z,5.60
2018-11-20T21:46:51.663Z,5.60
2018-11-20T21:49:53.868Z,5.70
2018-11-20T21:52:41.339Z,5.70
2018-11-20T21:55:44.208Z,5.80
2018-11-20T21:58:38.365Z,5.90
2018-11-20T22:01:46.330Z,5.90
2018-11-20T22:04:30.143Z,5.80
2018-11-20T22:07:17.947Z,5.70
2018-11-20T22:10:05.222Z,5.90
2018-11-20T22:13:08.036Z,6.00
2018-11-20T22:15:54.715Z,5.80
2018-11-20T22:18:51.646Z,5.70
2018-11-20T22:21:31.729Z,5.90
2018-11-20T22:24:29.042Z,5.90
2018-11-20T22:27:19.123Z,5.80
2018-11-20T22:29:59.809Z,5.90
2018-11-20T22:32:46.223Z,5.80
2018-11-20T22:35:37.024Z,5.90
2018-11-20T22:38:31.431Z,5.90
2018-11-20T22:41:18.269Z,5.80
2018-11-20T22:44:12.725Z,5.90
2018-11-20T22:47:04.788Z,5.90
2018-11-20T22:49:51.219Z,5.70
2018-11-20T22:52:53.982Z,5.80
2018-11-20T22:55:51.052Z,5.90
2018-11-20T22:58:47.929Z,5.70
2018-11-20T23:01:35.480Z,5.50
2018-11-20T23:04:21.481Z,5.60
2018-11-20T23:07:21.980Z,5.60
2018-11-20T23:09:51.484Z,5.50
2018-11-20T23:12:20.041Z,5.60
2018-11-20T23:14:52.509Z,5.70
2018-11-20T23:17:21.937Z,5.60
2018-11-20T23:19:51.409Z,5.70
2018-11-20T23:22:20.098Z,5.70
2018-11-20T23:24:48.669Z,5.60
2018-11-20T23:27:17.570Z,5.50
2018-11-20T23:29:46.537Z,5.50
2018-11-20T23:32:15.682Z,5.60
2018-11-20T23:34:44.390Z,5.40
2018-11-20T23:37:13.230Z,5.30
2018-11-20T23:39:42.986Z,5.20
2018-11-20T23:42:12.661Z,5.30
2018-11-20T23:44:41.369Z,5.30
2018-11-20T23:47:10.630Z,5.30
2018-11-20T23:49:40.019Z,5.20
2018-11-20T23:52:09.181Z,5.20
2018-11-20T23:54:37.814Z,5.10
2018-11-20T23:57:06.908Z,5.20
2018-11-20T23:59:36.081Z,5.20
